Time;durP1;ratioP1;P1;durP2;ratioP2;P2;SDS_P1;SDS_P2;PMS_P1;PMS_P2;Temp;Humidity;BMP_temperature;BMP_pressure;BME280_temperature;BME280_humidity;BME280_pressure;Samples;Min_cycle;Max_cycle;Signal;HPM_P1;HPM_P2
2022/06/05 00:01:43;;;;;;;;;;;;;;;9.92;100.00;101658.09;5087384;28;19930;-81
2022/06/05 00:04:19;;;;;;;;;;;;;;;9.83;100.00;101661.25;5074322;28;20380;-82
2022/06/05 00:06:56;;;;;;;;;;;;;;;9.88;100.00;101663.19;5073558;28;19921;-82
2022/06/05 00:09:31;;;;;;;;;;;;;;;9.84;100.00;101657.41;5096523;28;19921;-81
2022/06/05 00:12:06;;;;;;;;;;;;;;;9.83;100.00;101657.69;5073137;28;20300;-82
2022/06/05 00:14:37;;;;;;;;;;;;;;;9.80;100.00;101653.56;5074443;28;19920;-80
2022/06/05 00:17:05;;;;;;;;;;;;;;;9.74;100.00;101660.00;5082985;28;19931;-82
2022/06/05 00:19:36;;;;;;;;;;;;;;;9.74;100.00;101668.16;5077090;28;20284;-81
2022/06/05 00:22:05;;;;;;;;;;;;;;;9.74;100.00;101661.91;5074693;28;19978;-81
2022/06/05 00:24:38;;;;;;;;;;;;;;;9.70;100.00;101656.97;5085622;28;19931;-81
2022/06/05 00:27:14;;;;;;;;;;;;;;;9.74;100.00;101654.56;5085710;28;20387;-81
2022/06/05 00:29:49;;;;;;;;;;;;;;;9.75;100.00;101658.94;5070371;28;19920;-81
2022/06/05 00:32:26;;;;;;;;;;;;;;;9.80;100.00;101663.63;5072367;28;20292;-82
2022/06/05 00:34:55;;;;;;;;;;;;;;;9.75;100.00;101650.78;5075395;28;19920;-81
2022/06/05 00:37:32;;;;;;;;;;;;;;;9.76;100.00;101649.69;5071315;28;20592;-81
2022/06/05 00:40:08;;;;;;;;;;;;;;;9.75;100.00;101644.50;5075032;28;20288;-82
2022/06/05 00:42:41;;;;;;;;;;;;;;;9.80;100.00;101639.16;5083208;28;20333;-81
2022/06/05 00:45:11;;;;;;;;;;;;;;;9.74;100.00;101632.81;5078350;28;20425;-82
2022/06/05 00:47:44;;;;;;;;;;;;;;;9.76;100.00;101629.84;5080103;28;20361;-82
2022/06/05 00:50:20;;;;;;;;;;;;;;;9.76;100.00;101624.41;5078901;28;20288;-82
2022/06/05 00:52:49;;;;;;;;;;;;;;;9.67;100.00;101621.31;5069290;28;19924;-81
2022/06/05 00:55:18;;;;;;;;;;;;;;;9.66;100.00;101627.81;5083481;28;20300;-81
2022/06/05 00:57:47;;;;;;;;;;;;;;;9.70;100.00;101623.53;5079575;28;19928;-81
2022/06/05 01:00:17;;;;;;;;;;;;;;;9.71;100.00;101625.19;5064422;28;19920;-80
2022/06/05 01:02:52;;;;;;;;;;;;;;;9.69;100.00;101622.72;5086258;28;19920;-81
2022/06/05 01:05:23;;;;;;;;;;;;;;;9.73;100.00;101614.06;5084248;28;19927;-82
2022/06/05 01:07:57;;;;;;;;;;;;;;;9.68;100.00;101617.50;5080180;28;20296;-83
2022/06/05 01:10:27;;;;;;;;;;;;;;;9.59;100.00;101628.00;5069227;28;19932;-81
2022/06/05 01:13:00;;;;;;;;;;;;;;;9.59;100.00;101619.03;5079802;28;19927;-81
2022/06/05 01:15:38;;;;;;;;;;;;;;;9.64;100.00;101616.34;5093230;28;19920;-81
2022/06/05 01:18:17;;;;;;;;;;;;;;;9.64;100.00;101616.34;5082122;28;19920;-82
2022/06/05 01:20:58;;;;;;;;;;;;;;;9.58;100.00;101615.47;5075375;28;19924;-81
2022/06/05 01:23:41;;;;;;;;;;;;;;;9.55;100.00;101610.53;5074712;28;20280;-80
2022/06/05 01:26:14;;;;;;;;;;;;;;;9.52;100.00;101609.16;5068034;28;19927;-82
2022/06/05 01:28:53;;;;;;;;;;;;;;;9.52;100.00;101601.00;5082324;28;19927;-82
2022/06/05 01:31:24;;;;;;;;;;;;;;;9.48;100.00;101601.75;5081639;28;20360;-81
2022/06/05 01:33:57;;;;;;;;;;;;;;;9.47;100.00;101597.38;5060849;28;19920;-81
2022/06/05 01:36:29;;;;;;;;;;;;;;;9.47;100.00;101592.78;5082750;28;20377;-81
2022/06/05 01:39:05;;;;;;;;;;;;;;;9.45;100.00;101591.38;5062217;28;20395;-82
2022/06/05 01:41:41;;;;;;;;;;;;;;;9.48;100.00;101599.84;5076876;28;20296;-82
2022/06/05 01:44:11;;;;;;;;;;;;;;;9.49;100.00;101600.69;5084003;28;20411;-81
2022/06/05 01:46:39;;;;;;;;;;;;;;;9.47;100.00;101600.94;5082797;28;19920;-81
2022/06/05 01:49:12;;;;;;;;;;;;;;;9.45;100.00;101604.97;5070472;28;19921;-81
2022/06/05 01:51:52;;;;;;;;;;;;;;;9.41;100.00;101598.41;5070760;28;19920;-81
2022/06/05 01:54:36;;;;;;;;;;;;;;;9.37;100.00;101598.06;5067678;28;19924;-81
2022/06/05 01:57:12;;;;;;;;;;;;;;;9.33;100.00;101596.91;5072846;28;19942;-83
2022/06/05 01:59:47;;;;;;;;;;;;;;;9.29;100.00;101593.84;5073053;28;20313;-81
2022/06/05 02:02:23;;;;;;;;;;;;;;;9.29;100.00;101585.72;5067585;28;19921;-82
2022/06/05 02:04:58;;;;;;;;;;;;;;;9.26;100.00;101580.78;5076901;28;20395;-82
2022/06/05 02:07:33;;;;;;;;;;;;;;;9.28;100.00;101575.09;5070731;28;19924;-83
2022/06/05 02:10:08;;;;;;;;;;;;;;;9.16;100.00;101573.31;5072497;28;19947;-81
2022/06/05 02:12:43;;;;;;;;;;;;;;;9.21;100.00;101575.28;5077163;28;19928;-81
2022/06/05 02:15:11;;;;;;;;;;;;;;;9.13;100.00;101584.66;5074635;28;19924;-83
2022/06/05 02:17:39;;;;;;;;;;;;;;;9.13;100.00;101573.00;5073558;28;19924;-82
2022/06/05 02:20:12;;;;;;;;;;;;;;;9.11;100.00;101572.41;5076148;28;19921;-82
2022/06/05 02:22:47;;;;;;;;;;;;;;;9.09;100.00;101569.94;5068890;28;19925;-82
2022/06/05 02:25:21;;;;;;;;;;;;;;;9.12;100.00;101583.00;5076100;28;20379;-81
2022/06/05 02:27:51;;;;;;;;;;;;;;;9.12;100.00;101580.31;5076768;28;19928;-81
2022/06/05 02:30:25;;;;;;;;;;;;;;;9.10;100.00;101577.03;5072318;28;19920;-82
2022/06/05 02:33:02;;;;;;;;;;;;;;;9.08;100.00;101578.34;5072631;28;20293;-82
2022/06/05 02:35:36;;;;;;;;;;;;;;;9.15;100.00;101573.56;5080603;28;19920;-83
2022/06/05 02:38:12;;;;;;;;;;;;;;;9.09;100.00;101574.56;5070168;28;19927;-82
2022/06/05 02:40:46;;;;;;;;;;;;;;;9.14;100.00;101563.75;5067106;28;19924;-82
2022/06/05 02:43:26;;;;;;;;;;;;;;;9.08;100.00;101567.47;5083100;28;19931;-82
2022/06/05 02:45:59;;;;;;;;;;;;;;;9.07;100.00;101576.69;5066724;28;20961;-82
2022/06/05 02:48:29;;;;;;;;;;;;;;;9.07;100.00;101569.34;5077817;28;19921;-83
2022/06/05 02:51:01;;;;;;;;;;;;;;;9.12;100.00;101574.06;5083975;28;19927;-83
2022/06/05 02:53:45;;;;;;;;;;;;;;;9.07;100.00;101566.63;5074232;28;19928;-83
2022/06/05 02:56:13;;;;;;;;;;;;;;;9.07;100.00;101571.25;5080017;28;19928;-83
2022/06/05 02:58:48;;;;;;;;;;;;;;;9.04;100.00;101569.84;5070800;28;19948;-84
2022/06/05 03:04:07;;;;;;;;;;;;;;;8.83;100.00;101552.44;5069609;28;19927;-83
2022/06/05 03:06:41;;;;;;;;;;;;;;;8.87;100.00;101556.28;5076261;28;19927;-83
2022/06/05 03:09:15;;;;;;;;;;;;;;;8.91;100.00;101568.31;5067295;28;19921;-83
2022/06/05 03:11:43;;;;;;;;;;;;;;;8.96;100.00;101568.41;5079016;28;19920;-83
2022/06/05 03:14:12;;;;;;;;;;;;;;;8.84;100.00;101568.47;5073264;28;19932;-82
2022/06/05 03:16:41;;;;;;;;;;;;;;;8.89;100.00;101569.63;5087999;28;19928;-82
2022/06/05 03:19:14;;;;;;;;;;;;;;;8.78;100.00;101566.75;5081562;28;19924;-82
2022/06/05 03:21:47;;;;;;;;;;;;;;;8.84;100.00;101575.78;5077363;28;19927;-82
2022/06/05 03:24:20;;;;;;;;;;;;;;;8.83;100.00;101580.38;5076986;28;19924;-83
2022/06/05 03:26:48;;;;;;;;;;;;;;;8.81;100.00;101571.69;5087182;28;20481;-82
2022/06/05 03:29:17;;;;;;;;;;;;;;;8.83;100.00;101571.44;5077450;28;19931;-82
2022/06/05 03:31:45;;;;;;;;;;;;;;;8.81;100.00;101565.41;5083618;28;19925;-81
2022/06/05 03:34:18;;;;;;;;;;;;;;;8.72;100.00;101564.19;5056116;28;19927;-82
2022/06/05 03:36:51;;;;;;;;;;;;;;;8.78;100.00;101561.31;5076668;28;19924;-82
2022/06/05 03:39:24;;;;;;;;;;;;;;;8.87;100.00;101558.19;5071395;28;20300;-81
2022/06/05 03:41:52;;;;;;;;;;;;;;;8.88;100.00;101565.25;5076596;28;20256;-81
2022/06/05 03:44:27;;;;;;;;;;;;;;;8.85;100.00;101559.25;5074064;28;20273;-82
2022/06/05 03:46:59;;;;;;;;;;;;;;;8.84;100.00;101556.78;5085276;28;20404;-82
2022/06/05 03:49:33;;;;;;;;;;;;;;;8.78;100.00;101555.88;5068384;28;19921;-82
2022/06/05 03:52:06;;;;;;;;;;;;;;;8.93;100.00;101559.91;5077404;28;19924;-82
2022/06/05 03:54:39;;;;;;;;;;;;;;;8.91;100.00;101565.59;5070353;28;19931;-82
2022/06/05 03:57:12;;;;;;;;;;;;;;;8.94;100.00;101572.41;5084027;28;20276;-81
2022/06/05 03:59:42;;;;;;;;;;;;;;;8.95;100.00;101574.88;5095662;28;19920;-82
2022/06/05 04:02:15;;;;;;;;;;;;;;;8.93;100.00;101570.75;5079134;28;19928;-81
2022/06/05 04:04:43;;;;;;;;;;;;;;;9.00;100.00;101568.69;5068113;28;19927;-81
2022/06/05 04:07:16;;;;;;;;;;;;;;;9.08;100.00;101564.75;5077983;28;19924;-82
2022/06/05 04:09:49;;;;;;;;;;;;;;;9.13;100.00;101564.84;5060528;28;19924;-81
2022/06/05 04:12:21;;;;;;;;;;;;;;;9.22;100.00;101565.25;5067999;28;19931;-82
2022/06/05 04:14:51;;;;;;;;;;;;;;;9.28;100.00;101556.09;5067921;28;19943;-82
2022/06/05 04:17:24;;;;;;;;;;;;;;;9.30;100.00;101546.63;5072154;28;19986;-83
2022/06/05 04:19:52;;;;;;;;;;;;;;;9.39;100.00;101555.19;5077900;28;19924;-82
2022/06/05 04:22:25;;;;;;;;;;;;;;;9.47;100.00;101551.19;5072888;28;19920;-82
2022/06/05 04:24:59;;;;;;;;;;;;;;;9.49;100.00;101539.00;5076037;28;19927;-82
2022/06/05 04:27:32;;;;;;;;;;;;;;;9.54;100.00;101546.38;5090699;28;19924;-83
2022/06/05 04:30:01;;;;;;;;;;;;;;;9.56;100.00;101554.31;5071193;28;19936;-83
2022/06/05 04:32:34;;;;;;;;;;;;;;;9.62;100.00;101566.88;5068814;28;20357;-82
2022/06/05 04:35:08;;;;;;;;;;;;;;;9.67;100.00;101567.78;5072712;28;19927;-83
2022/06/05 04:37:36;;;;;;;;;;;;;;;9.73;100.00;101546.09;5070459;28;19925;-83
2022/06/05 04:40:10;;;;;;;;;;;;;;;9.77;100.00;101541.81;5076464;28;19920;-83
2022/06/05 04:42:43;;;;;;;;;;;;;;;9.88;100.00;101540.84;5068159;28;19928;-85
2022/06/05 04:45:17;;;;;;;;;;;;;;;9.94;100.00;101542.53;5073996;28;19924;-82
2022/06/05 04:47:51;;;;;;;;;;;;;;;10.03;100.00;101545.66;5065268;28;19927;-82
2022/06/05 04:50:19;;;;;;;;;;;;;;;10.13;100.00;101544.94;5086481;28;19920;-82
2022/06/05 04:52:47;;;;;;;;;;;;;;;10.35;100.00;101539.47;5067842;28;19921;-84
2022/06/05 04:55:20;;;;;;;;;;;;;;;10.44;100.00;101518.88;5075110;28;19920;-84
2022/06/05 04:57:48;;;;;;;;;;;;;;;10.55;100.00;101512.44;5079538;28;19927;-82
2022/06/05 05:00:23;;;;;;;;;;;;;;;10.57;100.00;101508.66;5076517;28;19924;-84
2022/06/05 05:02:51;;;;;;;;;;;;;;;10.59;100.00;101518.19;5074105;28;19927;-81
2022/06/05 05:05:19;;;;;;;;;;;;;;;10.74;100.00;101517.50;5070694;28;19920;-81
2022/06/05 05:07:47;;;;;;;;;;;;;;;12.02;100.00;101513.84;5073017;28;19924;-82
2022/06/05 05:10:15;;;;;;;;;;;;;;;13.85;100.00;101496.66;5063859;28;19987;-83
2022/06/05 05:12:48;;;;;;;;;;;;;;;15.61;100.00;101501.41;5072316;28;19920;-81
2022/06/05 05:15:16;;;;;;;;;;;;;;;16.76;100.00;101492.00;5078977;28;19924;-83
2022/06/05 05:17:50;;;;;;;;;;;;;;;18.11;100.00;101488.22;5067748;28;19927;-82
2022/06/05 05:20:23;;;;;;;;;;;;;;;18.96;100.00;101482.03;5074168;28;19924;-81
2022/06/05 05:22:56;;;;;;;;;;;;;;;18.82;100.00;101482.09;5078330;28;20292;-87
2022/06/05 05:25:29;;;;;;;;;;;;;;;19.47;100.00;101471.47;5071627;28;19939;-84
2022/06/05 05:28:01;;;;;;;;;;;;;;;19.12;100.00;101467.78;5074933;28;20598;-80
2022/06/05 05:30:34;;;;;;;;;;;;;;;19.13;100.00;101469.44;5067856;28;20372;-80
2022/06/05 05:33:09;;;;;;;;;;;;;;;19.48;100.00;101470.31;5071702;28;20293;-82
2022/06/05 05:35:36;;;;;;;;;;;;;;;19.56;100.00;101471.50;5075103;28;20014;-81
2022/06/05 05:38:09;;;;;;;;;;;;;;;20.38;100.00;101452.38;5068775;28;20403;-82
2022/06/05 05:43:33;;;;;;;;;;;;;;;19.10;100.00;101459.84;5075085;28;19927;-79
2022/06/05 05:46:01;;;;;;;;;;;;;;;18.35;100.00;101470.59;5072844;28;19924;-79
2022/06/05 05:48:35;;;;;;;;;;;;;;;17.18;100.00;101478.38;5065134;28;19924;-80
2022/06/05 05:51:10;;;;;;;;;;;;;;;16.62;100.00;101485.69;5071685;28;19921;-82
2022/06/05 05:53:38;;;;;;;;;;;;;;;16.46;100.00;101469.47;5069291;28;19927;-82
2022/06/05 05:56:07;;;;;;;;;;;;;;;16.36;100.00;101466.06;5071894;28;19935;-83
2022/06/05 05:58:35;;;;;;;;;;;;;;;15.90;100.00;101468.41;5084229;28;19926;-81
2022/06/05 06:01:03;;;;;;;;;;;;;;;15.41;100.00;101467.66;5068528;28;19932;-80
2022/06/05 06:03:37;;;;;;;;;;;;;;;15.46;100.00;101464.81;5067261;28;19924;-82
2022/06/05 06:06:10;;;;;;;;;;;;;;;15.67;100.00;101450.03;5076937;28;19920;-81
2022/06/05 06:08:38;;;;;;;;;;;;;;;15.53;100.00;101452.69;5071097;28;20500;-82
2022/06/05 06:11:11;;;;;;;;;;;;;;;15.41;100.00;101448.47;5069253;28;19924;-80
2022/06/05 06:13:44;;;;;;;;;;;;;;;15.41;100.00;101462.16;5070973;28;19932;-83
2022/06/05 06:16:17;;;;;;;;;;;;;;;15.29;100.00;101457.09;5082592;28;19928;-84
2022/06/05 06:18:47;;;;;;;;;;;;;;;15.64;100.00;101465.16;5070303;28;20265;-82
2022/06/05 06:21:20;;;;;;;;;;;;;;;15.76;100.00;101465.53;5077603;28;20525;-82
2022/06/05 06:23:48;;;;;;;;;;;;;;;15.48;100.00;101464.56;5062044;28;19925;-83
2022/06/05 06:26:22;;;;;;;;;;;;;;;15.70;100.00;101461.25;5087794;28;19920;-81
2022/06/05 06:28:55;;;;;;;;;;;;;;;15.87;100.00;101463.50;5085603;28;19920;-80
2022/06/05 06:31:28;;;;;;;;;;;;;;;15.74;100.00;101472.44;5066920;28;19932;-80
2022/06/05 06:34:02;;;;;;;;;;;;;;;15.56;100.00;101471.31;5077077;28;19940;-82
2022/06/05 06:36:35;;;;;;;;;;;;;;;15.57;100.00;101470.19;5065029;28;19920;-79
2022/06/05 06:39:03;;;;;;;;;;;;;;;15.70;100.00;101471.38;5071064;28;19920;-80
2022/06/05 06:41:31;;;;;;;;;;;;;;;15.88;100.00;101469.78;5077675;28;20308;-81
2022/06/05 06:44:03;;;;;;;;;;;;;;;15.90;100.00;101478.56;5071907;28;20277;-81
2022/06/05 06:46:37;;;;;;;;;;;;;;;16.10;100.00;101481.03;5068196;28;19924;-82
2022/06/05 06:49:11;;;;;;;;;;;;;;;15.66;100.00;101471.19;5072064;28;20268;-82
2022/06/05 06:51:39;;;;;;;;;;;;;;;15.78;100.00;101460.59;5076581;28;19920;-82
2022/06/05 06:54:12;;;;;;;;;;;;;;;16.18;100.00;101456.75;5079969;28;19920;-82
2022/06/05 06:56:45;;;;;;;;;;;;;;;16.07;100.00;101459.63;5070506;28;20617;-80
2022/06/05 06:59:19;;;;;;;;;;;;;;;16.12;100.00;101456.81;5077949;28;20304;-82
2022/06/05 07:01:52;;;;;;;;;;;;;;;16.24;100.00;101459.09;5066049;28;19920;-81
2022/06/05 07:04:22;;;;;;;;;;;;;;;16.32;100.00;101450.19;5079107;28;19931;-82
2022/06/05 07:06:55;;;;;;;;;;;;;;;16.38;100.00;101450.09;5069019;28;19947;-82
2022/06/05 07:09:28;;;;;;;;;;;;;;;16.53;100.00;101447.09;5057355;28;20400;-82
2022/06/05 07:11:56;;;;;;;;;;;;;;;16.56;100.00;101456.63;5070474;28;19938;-83
2022/06/05 07:14:28;;;;;;;;;;;;;;;16.62;100.00;101438.97;5069871;28;19927;-82
2022/06/05 07:17:01;;;;;;;;;;;;;;;16.62;100.00;101433.47;5064496;28;19920;-80
2022/06/05 07:19:36;;;;;;;;;;;;;;;16.58;100.00;101433.25;5070468;28;20379;-82
2022/06/05 07:22:04;;;;;;;;;;;;;;;16.81;100.00;101436.16;5076375;28;19985;-86
2022/06/05 07:24:32;;;;;;;;;;;;;;;16.89;100.00;101421.72;5067254;28;20273;-81
2022/06/05 07:27:05;;;;;;;;;;;;;;;16.97;100.00;101414.69;5055185;28;19932;-83
2022/06/05 07:29:33;;;;;;;;;;;;;;;16.93;100.00;101417.25;5070567;28;19925;-82
2022/06/05 07:32:06;;;;;;;;;;;;;;;17.23;100.00;101411.44;5069007;28;19928;-90
2022/06/05 07:34:36;;;;;;;;;;;;;;;17.19;100.00;101411.22;5072292;28;19920;-80
2022/06/05 07:37:09;;;;;;;;;;;;;;;17.37;100.00;101414.16;5069151;28;19921;-87
2022/06/05 07:39:42;;;;;;;;;;;;;;;17.56;100.00;101405.78;5063713;28;19920;-83
2022/06/05 07:42:15;;;;;;;;;;;;;;;17.70;100.00;101408.50;5065145;28;20273;-84
2022/06/05 07:44:43;;;;;;;;;;;;;;;17.81;100.00;101407.91;5075467;28;19921;-85
2022/06/05 07:47:11;;;;;;;;;;;;;;;17.78;100.00;101403.03;5063488;28;19928;-84
2022/06/05 07:49:45;;;;;;;;;;;;;;;18.00;100.00;101404.22;5064732;28;19927;-87
2022/06/05 07:55:10;;;;;;;;;;;;;;;18.10;100.00;101389.38;5061473;28;19920;-84
2022/06/05 07:57:38;;;;;;;;;;;;;;;18.17;100.00;101389.75;5077646;28;19943;-85
2022/06/05 08:00:12;;;;;;;;;;;;;;;18.06;100.00;101389.19;5065743;28;19921;-84
2022/06/05 08:02:45;;;;;;;;;;;;;;;18.29;100.00;101386.44;5067191;28;19963;-81
2022/06/05 08:05:20;;;;;;;;;;;;;;;18.50;100.00;101387.50;5075233;28;20462;-84
2022/06/05 08:07:47;;;;;;;;;;;;;;;18.55;100.00;101386.56;5067768;28;20327;-83
2022/06/05 08:10:20;;;;;;;;;;;;;;;18.59;100.00;101376.53;5064014;28;20288;-87
2022/06/05 08:12:55;;;;;;;;;;;;;;;18.61;100.00;101371.50;5073105;28;19932;-88
2022/06/05 08:15:28;;;;;;;;;;;;;;;18.49;100.00;101369.38;5069010;28;20863;-86
2022/06/05 08:17:56;;;;;;;;;;;;;;;18.83;100.00;101378.09;5069246;28;19924;-83
2022/06/05 08:20:30;;;;;;;;;;;;;;;18.58;100.00;101377.66;5067025;28;19928;-82
2022/06/05 08:22:58;;;;;;;;;;;;;;;18.70;100.00;101377.88;5066735;28;20359;-84
2022/06/05 08:25:31;;;;;;;;;;;;;;;18.89;100.00;101378.78;5077074;28;19943;-84
2022/06/05 08:28:05;;;;;;;;;;;;;;;18.86;100.00;101375.53;5069582;28;19920;-82
2022/06/05 08:30:32;;;;;;;;;;;;;;;18.99;100.00;101365.53;5084573;28;19931;-84
2022/06/05 08:33:01;;;;;;;;;;;;;;;19.15;100.00;101365.88;5071914;28;19920;-82
2022/06/05 08:35:28;;;;;;;;;;;;;;;19.31;100.00;101365.44;5069219;28;19943;-82
2022/06/05 08:43:56;;;;;;;;;;;;;;;19.49;100.00;101353.25;5067780;28;19921;-83
2022/06/05 08:46:32;;;;;;;;;;;;;;;19.50;100.00;101360.41;5074651;28;19924;-86
2022/06/05 08:49:02;;;;;;;;;;;;;;;19.41;100.00;101356.81;5075642;28;19935;-83
2022/06/05 08:51:41;;;;;;;;;;;;;;;19.49;100.00;101352.47;5069964;28;19920;-83
2022/06/05 08:54:18;;;;;;;;;;;;;;;19.57;100.00;101359.09;5069563;28;19920;-82
2022/06/05 08:56:53;;;;;;;;;;;;;;;19.26;90.65;101355.34;5069799;28;20327;-84
2022/06/05 08:59:29;;;;;;;;;;;;;;;19.54;94.44;101352.28;5067429;28;19924;-87
2022/06/05 09:02:05;;;;;;;;;;;;;;;19.48;91.01;101350.81;5065684;28;19944;-83
2022/06/05 09:04:47;;;;;;;;;;;;;;;19.48;90.11;101351.63;5061346;28;20308;-82
2022/06/05 09:07:23;;;;;;;;;;;;;;;19.54;100.00;101349.50;5046313;28;19944;-83
2022/06/05 09:09:59;;;;;;;;;;;;;;;19.87;97.36;101349.88;5063740;28;19932;-83
2022/06/05 09:12:36;;;;;;;;;;;;;;;19.71;93.23;101341.25;5037755;28;19935;-82
2022/06/05 09:15:07;;;;;;;;;;;;;;;19.77;84.93;101341.06;5037440;28;19939;-84
2022/06/05 09:17:44;;;;;;;;;;;;;;;19.75;87.14;101340.56;5039794;28;19935;-82
2022/06/05 09:20:18;;;;;;;;;;;;;;;19.77;84.21;101347.41;5038339;28;19954;-84
2022/06/05 09:22:57;;;;;;;;;;;;;;;19.98;72.24;101344.00;5039068;28;19929;-85
2022/06/05 09:25:39;;;;;;;;;;;;;;;20.02;75.28;101333.91;5042961;28;19928;-85
2022/06/05 09:28:28;;;;;;;;;;;;;;;20.22;61.74;101330.44;5034047;28;19935;-84
2022/06/05 09:31:09;;;;;;;;;;;;;;;20.26;72.06;101332.53;5063760;28;19982;-85
2022/06/05 09:33:39;;;;;;;;;;;;;;;20.52;71.66;101327.75;5039967;28;19928;-83
2022/06/05 09:36:09;;;;;;;;;;;;;;;20.59;60.19;101326.41;5044100;28;19936;-82
2022/06/05 09:38:44;;;;;;;;;;;;;;;20.80;65.08;101319.00;5055617;28;19935;-83
2022/06/05 09:41:26;;;;;;;;;;;;;;;20.83;60.61;101323.88;5052962;28;19935;-85
2022/06/05 09:44:00;;;;;;;;;;;;;;;20.93;59.94;101314.38;5037752;28;19936;-83
2022/06/05 09:46:49;;;;;;;;;;;;;;;20.72;49.97;101306.84;5051434;28;19935;-84
2022/06/05 09:49:26;;;;;;;;;;;;;;;20.82;55.05;101299.31;5051009;28;19924;-83
2022/06/05 09:51:54;;;;;;;;;;;;;;;21.03;69.00;101291.03;5037557;28;19967;-84
2022/06/05 09:54:29;;;;;;;;;;;;;;;21.16;63.52;101278.09;5054958;28;19928;-84
2022/06/05 10:00:01;;;;;;;;;;;;;;;21.29;74.49;101260.38;5048703;28;19928;-83
2022/06/05 10:02:33;;;;;;;;;;;;;;;21.27;54.33;101254.38;5050359;28;19935;-84
2022/06/05 10:05:12;;;;;;;;;;;;;;;20.98;55.60;101245.00;5056876;28;19928;-86
2022/06/05 10:07:47;;;;;;;;;;;;;;;21.09;68.47;101236.28;5035603;28;20301;-83
2022/06/05 10:10:22;;;;;;;;;;;;;;;21.12;61.79;101239.22;5051453;28;20947;-82
2022/06/05 10:12:59;;;;;;;;;;;;;;;21.08;44.95;101231.94;5044339;28;19945;-83
2022/06/05 10:15:33;;;;;;;;;;;;;;;21.05;48.96;101231.44;5048985;28;19928;-81
2022/06/05 10:18:11;;;;;;;;;;;;;;;21.37;53.70;101220.75;5046781;28;19928;-83
2022/06/05 10:21:06;;;;;;;;;;;;;;;21.66;65.78;101215.44;5055608;28;20427;-85
2022/06/05 10:23:49;;;;;;;;;;;;;;;21.60;59.86;101206.56;5040253;28;19928;-80
2022/06/05 10:26:20;;;;;;;;;;;;;;;21.47;56.26;101210.41;5039234;28;19935;-84
2022/06/05 10:28:51;;;;;;;;;;;;;;;21.62;50.12;101201.47;5041108;28;19936;-85
2022/06/05 10:31:26;;;;;;;;;;;;;;;21.70;56.19;101206.09;5043845;28;19929;-88
2022/06/05 10:34:04;;;;;;;;;;;;;;;21.87;48.40;101205.06;5042389;28;20376;-82
2022/06/05 10:36:52;;;;;;;;;;;;;;;21.98;59.70;101205.44;5052305;28;19928;-84
2022/06/05 10:39:28;;;;;;;;;;;;;;;22.12;48.53;101199.56;5043784;28;21557;-84
2022/06/05 10:42:23;;;;;;;;;;;;;;;22.13;53.34;101195.63;5038628;28;20284;-85
2022/06/05 10:45:00;;;;;;;;;;;;;;;21.87;47.29;101184.88;5040788;28;19929;-84
2022/06/05 10:47:36;;;;;;;;;;;;;;;22.17;51.29;101181.91;5045573;28;19921;-85
2022/06/05 10:50:13;;;;;;;;;;;;;;;22.30;51.63;101175.19;5043712;28;19929;-85
2022/06/05 10:52:49;;;;;;;;;;;;;;;22.40;49.12;101183.06;5038792;28;19935;-83
2022/06/05 10:55:30;;;;;;;;;;;;;;;22.52;49.78;101179.44;5030789;28;19924;-83
2022/06/05 10:58:04;;;;;;;;;;;;;;;22.52;43.23;101173.09;5042542;28;19936;-85
2022/06/05 11:00:38;;;;;;;;;;;;;;;22.38;38.29;101176.25;5042316;28;20416;-85
2022/06/05 11:03:18;;;;;;;;;;;;;;;22.21;43.22;101171.75;5039667;28;20506;-83
2022/06/05 11:06:04;;;;;;;;;;;;;;;22.49;55.60;101174.59;5039164;28;20040;-83
2022/06/05 11:08:42;;;;;;;;;;;;;;;22.54;46.21;101165.25;5036333;28;19940;-83
2022/06/05 11:14:13;;;;;;;;;;;;;;;22.45;42.84;101164.56;5036538;28;21400;-85
2022/06/05 11:16:52;;;;;;;;;;;;;;;22.61;53.16;101159.91;5054201;28;19929;-86
2022/06/05 11:19:24;;;;;;;;;;;;;;;22.58;41.63;101153.09;5041304;28;21471;-85
2022/06/05 11:21:59;;;;;;;;;;;;;;;22.57;37.12;101156.22;5043043;28;20692;-87
2022/06/05 11:24:30;;;;;;;;;;;;;;;22.61;40.18;101154.38;5038133;28;19935;-83
2022/06/05 11:27:04;;;;;;;;;;;;;;;22.72;35.36;101161.03;5042724;28;19936;-86
2022/06/05 11:29:35;;;;;;;;;;;;;;;22.95;36.55;101151.38;5035948;28;19928;-84
2022/06/05 11:32:18;;;;;;;;;;;;;;;22.65;37.35;101157.22;5042493;28;19928;-82
2022/06/05 11:34:55;;;;;;;;;;;;;;;22.56;37.92;101158.19;5042777;28;20340;-83
2022/06/05 11:37:46;;;;;;;;;;;;;;;22.70;33.72;101159.78;5050775;28;21477;-86
2022/06/05 11:40:23;;;;;;;;;;;;;;;22.89;37.62;101153.59;5045835;28;19928;-85
2022/06/05 11:43:09;;;;;;;;;;;;;;;22.75;33.38;101142.88;5040014;28;19935;-87
2022/06/05 11:45:48;;;;;;;;;;;;;;;22.74;33.73;101144.88;5039728;28;19929;-83
2022/06/05 11:48:20;;;;;;;;;;;;;;;22.93;43.44;101140.63;5057761;28;19928;-82
2022/06/05 11:50:58;;;;;;;;;;;;;;;22.84;31.68;101132.47;5061803;28;21128;-83
2022/06/05 11:53:35;;;;;;;;;;;;;;;22.71;32.93;101126.13;5047784;28;19928;-82
2022/06/05 11:56:19;;;;;;;;;;;;;;;22.91;37.02;101129.88;5029753;28;19936;-85
2022/06/05 11:58:56;;;;;;;;;;;;;;;23.10;34.94;101115.34;5036485;28;19928;-81
2022/06/05 12:01:32;;;;;;;;;;;;;;;23.13;39.80;101115.81;5039639;28;19935;-85
2022/06/05 12:04:15;;;;;;;;;;;;;;;23.03;34.36;101109.56;5046000;28;19940;-82
2022/06/05 12:06:51;;;;;;;;;;;;;;;23.16;39.19;101096.47;5059175;28;19939;-85
2022/06/05 12:09:25;;;;;;;;;;;;;;;23.27;40.17;101083.69;5032031;28;19935;-84
2022/06/05 12:12:04;;;;;;;;;;;;;;;23.25;36.89;101077.66;5050039;28;19929;-85
2022/06/05 12:14:42;;;;;;;;;;;;;;;23.44;48.82;101065.06;5039458;28;19939;-84
2022/06/05 12:17:17;;;;;;;;;;;;;;;23.39;42.09;101066.13;5037228;28;19935;-86
2022/06/05 12:19:53;;;;;;;;;;;;;;;23.57;42.36;101049.91;5039769;28;19929;-82
2022/06/05 12:22:24;;;;;;;;;;;;;;;23.54;41.88;101047.03;5064276;28;19929;-84
2022/06/05 12:25:01;;;;;;;;;;;;;;;23.29;37.89;101043.66;5037881;28;19928;-85
2022/06/05 12:27:44;;;;;;;;;;;;;;;23.38;45.11;101030.38;5053564;28;19928;-83
2022/06/05 12:30:18;;;;;;;;;;;;;;;23.42;42.17;101029.31;5058187;28;19928;-85
2022/06/05 12:32:55;;;;;;;;;;;;;;;23.24;34.61;101030.81;5044295;28;19929;-85
2022/06/05 12:35:33;;;;;;;;;;;;;;;23.58;43.70;101031.25;5040382;28;19928;-84
2022/06/05 12:38:16;;;;;;;;;;;;;;;23.67;42.34;101037.44;5046127;28;19941;-84
2022/06/05 12:40:53;;;;;;;;;;;;;;;23.69;42.56;101037.88;5039386;28;19928;-86
2022/06/05 12:43:29;;;;;;;;;;;;;;;23.55;35.68;101037.53;5042587;28;19928;-85
2022/06/05 12:46:10;;;;;;;;;;;;;;;23.31;37.62;101033.78;5037219;28;20274;-90
2022/06/05 12:48:40;;;;;;;;;;;;;;;23.47;38.85;101038.53;5063397;28;19935;-86
2022/06/05 12:51:16;;;;;;;;;;;;;;;23.55;36.71;101038.34;5048794;28;20308;-84
2022/06/05 12:53:48;;;;;;;;;;;;;;;23.45;34.99;101030.56;5056378;28;19935;-86
2022/06/05 12:56:23;;;;;;;;;;;;;;;23.37;35.26;101040.69;5033420;28;19933;-85
2022/06/05 12:58:56;;;;;;;;;;;;;;;23.51;41.60;101031.09;5039400;28;19928;-82
2022/06/05 13:01:33;;;;;;;;;;;;;;;23.64;52.21;101032.59;5040029;28;19939;-88
2022/06/05 13:04:03;;;;;;;;;;;;;;;23.84;37.91;101029.88;5040570;28;19940;-84
2022/06/05 13:06:47;;;;;;;;;;;;;;;23.93;41.17;101027.72;5047774;28;19929;-86
2022/06/05 13:09:19;;;;;;;;;;;;;;;23.86;42.11;101027.53;5040441;28;19928;-86
2022/06/05 13:11:56;;;;;;;;;;;;;;;23.85;34.08;101018.41;5036663;28;20434;-83
2022/06/05 13:14:41;;;;;;;;;;;;;;;23.92;41.11;101021.34;5032469;28;19928;-86
2022/06/05 13:17:18;;;;;;;;;;;;;;;23.92;33.33;101004.69;5038815;28;19928;-86
2022/06/05 13:19:51;;;;;;;;;;;;;;;23.94;38.47;101001.53;5059177;28;20454;-86
2022/06/05 13:22:30;;;;;;;;;;;;;;;24.10;36.08;100996.72;5041911;28;19939;-85
2022/06/05 13:25:07;;;;;;;;;;;;;;;23.99;38.19;100992.09;5041217;28;19936;-83
2022/06/05 13:27:48;;;;;;;;;;;;;;;23.94;38.26;100979.31;5041852;28;19928;-83